Terminal Aerodrome Forecast
Issued by NWS

Home | Current Version | Previous Version | Text Only | Print | Product List | Glossary On
Versions: 1 2 3 4 5 6 7 8 9 10 11 12
213
FTUS45 KABQ 211124
TAFFMN
TAF
KFMN 211124Z 2112/2212 27010KT P6SM SCT250
     FM211800 28012G21KT P6SM FEW250
     FM220100 29010KT P6SM SCT250
     FM220500 07005KT P6SM BKN200=

USA.gov is the U.S. government's official web portal to all federal, state and local government web resources and services.